Time;durP1;ratioP1;P1;durP2;ratioP2;P2;SDS_P1;SDS_P2;PMS_P1;PMS_P2;Temp;Humidity;BMP_temperature;BMP_pressure;BME280_temperature;BME280_humidity;BME280_pressure;Samples;Min_cycle;Max_cycle;Signal;HPM_P1;HPM_P2
2022/01/18 00:01:14;;;;;;;;;;;6.80;99.90;;;;;;4956610;29;20363;-79
2022/01/18 00:03:39;;;;;;;;;;;6.80;99.90;;;;;;4955193;29;19918;-79
2022/01/18 00:06:05;;;;;;;;;;;6.70;99.90;;;;;;4956430;29;19910;-79
2022/01/18 00:08:31;;;;;;;;;;;6.70;99.90;;;;;;4956378;29;19961;-79
2022/01/18 00:10:56;;;;;;;;;;;6.80;99.90;;;;;;4956282;29;19997;-79
2022/01/18 00:14:12;;;;;;;;;;;6.90;99.90;;;;;;4956162;29;19922;-79
2022/01/18 00:19:05;;;;;;;;;;;6.90;99.90;;;;;;4951588;29;19910;-79
2022/01/18 00:21:52;;;;;;;;;;;6.90;99.90;;;;;;4938615;29;19917;-79
2022/01/18 00:24:17;;;;;;;;;;;6.80;99.90;;;;;;4938640;29;19968;-79
2022/01/18 00:26:43;;;;;;;;;;;6.80;99.90;;;;;;4956167;29;19917;-79
2022/01/18 00:29:12;;;;;;;;;;;7.00;99.90;;;;;;4956010;29;19917;-79
2022/01/18 00:31:49;;;;;;;;;;;7.10;99.90;;;;;;4955936;29;20000;-79
2022/01/18 00:34:22;;;;;;;;;;;7.20;99.90;;;;;;4938459;29;19911;-79
2022/01/18 00:39:14;;;;;;;;;;;7.20;99.90;;;;;;4956501;29;20398;-79
2022/01/18 00:41:40;;;;;;;;;;;7.20;99.90;;;;;;4955796;29;19914;-79
2022/01/18 00:44:06;;;;;;;;;;;7.30;99.90;;;;;;4938607;29;19910;-79
2022/01/18 00:46:31;;;;;;;;;;;7.30;99.90;;;;;;4954415;29;19917;-79
2022/01/18 00:49:00;;;;;;;;;;;7.30;99.90;;;;;;4955729;29;19910;-79
2022/01/18 00:51:26;;;;;;;;;;;7.30;99.90;;;;;;4954383;29;19933;-79
2022/01/18 00:53:52;;;;;;;;;;;7.30;99.90;;;;;;4955366;29;19974;-79
2022/01/18 00:56:25;;;;;;;;;;;7.30;99.90;;;;;;4955632;28;19911;-79
2022/01/18 00:58:51;;;;;;;;;;;7.30;99.90;;;;;;4955711;29;20375;-79
2022/01/18 01:01:17;;;;;;;;;;;7.30;99.90;;;;;;4955531;29;19910;-79
2022/01/18 01:03:43;;;;;;;;;;;7.30;99.90;;;;;;4955462;29;19915;-79
2022/01/18 01:06:09;;;;;;;;;;;7.30;99.90;;;;;;4955512;29;19911;-79
2022/01/18 01:08:35;;;;;;;;;;;7.30;99.90;;;;;;4955540;29;19934;-79
2022/01/18 01:11:02;;;;;;;;;;;7.30;99.90;;;;;;4955497;29;19911;-79
2022/01/18 01:13:30;;;;;;;;;;;7.40;99.90;;;;;;4955669;29;19914;-79
2022/01/18 01:43:11;;;;;;;;;;;7.50;99.90;;;;;;4955508;29;19917;-79
2022/01/18 01:45:37;;;;;;;;;;;7.50;99.90;;;;;;4937737;29;19914;-79
2022/01/18 01:48:03;;;;;;;;;;;7.50;99.90;;;;;;4955195;29;19974;-79
2022/01/18 01:50:46;;;;;;;;;;;7.60;99.90;;;;;;4955019;29;19916;-79
2022/01/18 01:53:12;;;;;;;;;;;7.60;99.90;;;;;;4955097;29;19914;-79
2022/01/18 01:55:38;;;;;;;;;;;7.60;99.90;;;;;;4954788;29;19933;-79
2022/01/18 01:58:04;;;;;;;;;;;7.70;99.90;;;;;;4955119;29;20346;-79
2022/01/18 02:00:30;;;;;;;;;;;7.70;99.90;;;;;;4955041;29;19933;-79
2022/01/18 02:02:55;;;;;;;;;;;7.70;99.90;;;;;;4954397;29;19910;-79
2022/01/18 02:05:22;;;;;;;;;;;7.70;99.90;;;;;;4955062;29;20004;-79
2022/01/18 02:07:49;;;;;;;;;;;7.70;99.90;;;;;;4954983;28;20046;-79
2022/01/18 02:10:14;;;;;;;;;;;7.70;99.90;;;;;;4958193;29;19954;-79
2022/01/18 02:12:40;;;;;;;;;;;7.70;99.90;;;;;;4958487;29;19996;-79
2022/01/18 02:15:17;;;;;;;;;;;7.80;99.90;;;;;;4958445;29;20005;-79
2022/01/18 02:23:21;;;;;;;;;;;7.80;99.90;;;;;;4958209;29;19917;-79
2022/01/18 02:25:46;;;;;;;;;;;7.80;99.90;;;;;;4958168;29;20009;-79
2022/01/18 02:28:12;;;;;;;;;;;7.90;99.90;;;;;;4940943;29;20070;-79
2022/01/18 02:30:38;;;;;;;;;;;7.90;99.90;;;;;;4958143;29;19910;-79
2022/01/18 02:33:04;;;;;;;;;;;7.80;99.90;;;;;;4958225;29;19921;-79
2022/01/18 02:35:33;;;;;;;;;;;7.70;99.90;;;;;;4958056;29;19965;-79
2022/01/18 02:37:59;;;;;;;;;;;7.70;99.90;;;;;;4958149;29;19941;-79
2022/01/18 02:40:24;;;;;;;;;;;7.70;99.90;;;;;;4958002;29;19957;-79
2022/01/18 02:42:57;;;;;;;;;;;7.70;99.90;;;;;;4958163;29;19910;-79
2022/01/18 02:45:23;;;;;;;;;;;7.60;99.90;;;;;;4957854;29;19917;-79
2022/01/18 02:47:50;;;;;;;;;;;7.60;99.90;;;;;;4956871;29;19911;-79
2022/01/18 02:50:19;;;;;;;;;;;7.60;99.90;;;;;;4957800;29;19918;-79
2022/01/18 02:52:44;;;;;;;;;;;7.60;99.90;;;;;;4940408;29;19915;-79
2022/01/18 02:55:10;;;;;;;;;;;7.70;99.90;;;;;;4957605;29;20367;-79
2022/01/18 02:58:01;;;;;;;;;;;7.70;99.90;;;;;;4957643;29;19910;-79
2022/01/18 03:00:43;;;;;;;;;;;7.80;99.90;;;;;;4940130;29;19918;-79
2022/01/18 03:03:17;;;;;;;;;;;7.60;99.90;;;;;;4957975;29;19911;-79
2022/01/18 03:05:43;;;;;;;;;;;7.70;99.90;;;;;;4957640;29;19914;-79
2022/01/18 03:08:10;;;;;;;;;;;7.80;99.90;;;;;;4957433;29;20327;-79
2022/01/18 03:10:36;;;;;;;;;;;7.80;99.90;;;;;;4940179;29;19966;-79
2022/01/18 03:13:02;;;;;;;;;;;7.80;99.90;;;;;;4957636;29;19914;-78
2022/01/18 03:15:27;;;;;;;;;;;7.80;99.90;;;;;;4957599;29;19993;-79
2022/01/18 03:17:53;;;;;;;;;;;7.80;99.90;;;;;;4957338;29;19910;-79
2022/01/18 03:20:20;;;;;;;;;;;7.80;99.90;;;;;;4956064;28;19933;-79
2022/01/18 03:22:48;;;;;;;;;;;7.80;99.90;;;;;;4957385;29;19910;-79
2022/01/18 03:25:27;;;;;;;;;;;7.70;99.90;;;;;;4939884;29;19910;-79
2022/01/18 03:28:05;;;;;;;;;;;7.60;99.90;;;;;;4957213;29;19969;-79
2022/01/18 03:30:32;;;;;;;;;;;7.60;99.90;;;;;;4957328;29;19956;-80
2022/01/18 03:32:58;;;;;;;;;;;7.60;99.90;;;;;;4956967;29;20385;-79
2022/01/18 03:35:23;;;;;;;;;;;7.60;99.90;;;;;;4957073;29;19910;-79
2022/01/18 03:37:49;;;;;;;;;;;7.60;99.90;;;;;;4956941;29;20256;-79
2022/01/18 03:40:15;;;;;;;;;;;7.70;99.90;;;;;;4956874;29;19917;-79
2022/01/18 03:42:47;;;;;;;;;;;7.70;99.90;;;;;;4956876;29;19910;-79
2022/01/18 03:45:14;;;;;;;;;;;7.80;99.90;;;;;;4955311;29;19911;-79
2022/01/18 03:47:41;;;;;;;;;;;7.80;99.90;;;;;;4957277;29;19989;-79
2022/01/18 03:50:08;;;;;;;;;;;7.80;99.90;;;;;;4956685;29;19998;-79
2022/01/18 03:52:34;;;;;;;;;;;7.80;99.90;;;;;;4956690;29;20335;-79
2022/01/18 03:55:00;;;;;;;;;;;7.70;99.90;;;;;;4956582;29;19972;-79
2022/01/18 03:57:25;;;;;;;;;;;7.60;99.90;;;;;;4956568;29;19917;-79
2022/01/18 03:59:51;;;;;;;;;;;7.50;99.90;;;;;;4956923;29;19961;-79
2022/01/18 04:02:17;;;;;;;;;;;7.60;99.90;;;;;;4956636;29;19946;-79
2022/01/18 04:04:43;;;;;;;;;;;7.60;99.90;;;;;;4956521;29;20347;-79
2022/01/18 04:07:08;;;;;;;;;;;7.70;99.90;;;;;;4939186;29;19938;-79
2022/01/18 04:09:34;;;;;;;;;;;7.60;99.90;;;;;;4956862;29;19911;-79
2022/01/18 04:12:00;;;;;;;;;;;7.70;99.90;;;;;;4956206;29;20442;-78
2022/01/18 04:14:26;;;;;;;;;;;7.50;99.90;;;;;;4954966;29;19910;-79
2022/01/18 04:27:37;;;;;;;;;;;7.40;99.90;;;;;;4956258;29;19922;-79
2022/01/18 04:30:04;;;;;;;;;;;7.40;99.90;;;;;;4956004;29;20001;-79
2022/01/18 04:32:29;;;;;;;;;;;7.40;99.90;;;;;;4955547;28;19914;-79
2022/01/18 04:34:55;;;;;;;;;;;7.40;99.90;;;;;;4955916;29;19918;-79
2022/01/18 04:37:20;;;;;;;;;;;7.30;99.90;;;;;;4956066;29;19917;-79
2022/01/18 04:39:48;;;;;;;;;;;7.30;99.90;;;;;;4956095;29;19979;-79
2022/01/18 04:42:31;;;;;;;;;;;7.30;99.90;;;;;;4955875;29;19933;-79
2022/01/18 04:50:25;;;;;;;;;;;7.40;99.90;;;;;;4955555;29;19918;-79
2022/01/18 04:52:50;;;;;;;;;;;7.40;99.90;;;;;;4955554;29;20287;-79
2022/01/18 04:55:18;;;;;;;;;;;7.40;99.90;;;;;;4954164;29;19929;-79
2022/01/18 04:57:53;;;;;;;;;;;7.30;99.90;;;;;;4954340;29;19910;-79
2022/01/18 05:00:19;;;;;;;;;;;7.30;99.90;;;;;;4955677;29;19997;-79
2022/01/18 05:02:47;;;;;;;;;;;7.30;99.90;;;;;;4954351;29;20267;-79
2022/01/18 05:05:22;;;;;;;;;;;7.30;99.90;;;;;;4954245;29;19918;-79
2022/01/18 05:07:48;;;;;;;;;;;7.30;99.90;;;;;;4955726;29;19914;-79
2022/01/18 05:10:16;;;;;;;;;;;7.20;99.90;;;;;;4955590;29;19918;-79
2022/01/18 05:12:48;;;;;;;;;;;7.10;99.90;;;;;;4954091;29;20371;-79
2022/01/18 05:15:37;;;;;;;;;;;7.10;99.90;;;;;;4955936;29;19910;-79
2022/01/18 05:21:26;;;;;;;;;;;6.80;99.90;;;;;;4896354;29;20452;-79
2022/01/18 05:23:51;;;;;;;;;;;6.80;99.90;;;;;;4952130;29;19917;-79
2022/01/18 05:26:17;;;;;;;;;;;6.70;99.90;;;;;;4955522;29;19911;-79
2022/01/18 05:28:43;;;;;;;;;;;6.60;99.90;;;;;;4955396;29;19941;-79
2022/01/18 05:31:09;;;;;;;;;;;6.40;99.90;;;;;;4955764;29;19917;-79
2022/01/18 05:33:34;;;;;;;;;;;6.40;99.90;;;;;;4955647;29;20034;-79
2022/01/18 05:36:00;;;;;;;;;;;6.40;99.90;;;;;;4955244;29;19911;-79
2022/01/18 05:38:25;;;;;;;;;;;6.40;99.90;;;;;;4938076;29;19911;-79
2022/01/18 05:40:51;;;;;;;;;;;6.40;99.90;;;;;;4955208;29;20288;-79
2022/01/18 05:43:17;;;;;;;;;;;6.40;99.90;;;;;;4955588;28;19946;-79
2022/01/18 05:45:42;;;;;;;;;;;6.40;99.90;;;;;;4958961;29;19993;-79
2022/01/18 05:48:08;;;;;;;;;;;6.30;99.90;;;;;;4958940;29;19957;-79
2022/01/18 05:50:35;;;;;;;;;;;6.40;99.90;;;;;;4958892;29;20260;-79
2022/01/18 05:53:00;;;;;;;;;;;6.30;99.90;;;;;;4958832;29;20054;-78
2022/01/18 05:55:27;;;;;;;;;;;6.30;99.90;;;;;;4958623;29;19970;-79
2022/01/18 05:57:53;;;;;;;;;;;6.20;99.90;;;;;;4957465;29;19918;-79
2022/01/18 06:00:22;;;;;;;;;;;6.20;99.90;;;;;;4958666;29;20378;-79
2022/01/18 06:03:01;;;;;;;;;;;6.20;99.90;;;;;;4958669;29;19994;-79
2022/01/18 06:08:11;;;;;;;;;;;6.10;99.90;;;;;;4958453;29;20434;-79
2022/01/18 06:10:37;;;;;;;;;;;6.10;99.90;;;;;;4958584;29;19915;-79
2022/01/18 06:13:04;;;;;;;;;;;6.00;99.90;;;;;;4958428;29;19969;-79
2022/01/18 06:15:30;;;;;;;;;;;6.00;99.90;;;;;;4958769;29;19910;-79
2022/01/18 06:17:57;;;;;;;;;;;6.00;99.90;;;;;;4958388;29;20282;-79
2022/01/18 06:20:22;;;;;;;;;;;6.00;99.90;;;;;;4958616;29;19914;-79
2022/01/18 06:22:51;;;;;;;;;;;6.00;99.90;;;;;;4958331;29;19910;-79
2022/01/18 06:25:20;;;;;;;;;;;6.00;99.90;;;;;;4958193;29;19966;-79
2022/01/18 06:27:45;;;;;;;;;;;6.10;99.90;;;;;;4958448;29;19917;-79
2022/01/18 06:30:11;;;;;;;;;;;6.20;99.90;;;;;;4958249;29;19910;-79
2022/01/18 06:32:40;;;;;;;;;;;6.30;99.90;;;;;;4958035;29;19980;-79
2022/01/18 06:35:07;;;;;;;;;;;6.20;99.90;;;;;;4958044;29;19962;-79
2022/01/18 06:37:33;;;;;;;;;;;6.30;99.90;;;;;;4957957;29;20399;-79
2022/01/18 06:40:01;;;;;;;;;;;6.40;99.90;;;;;;4957946;29;19958;-79
2022/01/18 06:42:27;;;;;;;;;;;6.40;99.90;;;;;;4957940;29;19917;-79
2022/01/18 06:44:52;;;;;;;;;;;6.40;99.90;;;;;;4957895;29;19914;-79
2022/01/18 06:47:18;;;;;;;;;;;6.40;99.90;;;;;;4958293;29;19910;-79
2022/01/18 06:49:43;;;;;;;;;;;6.40;99.90;;;;;;4957829;29;19954;-79
2022/01/18 06:52:09;;;;;;;;;;;6.40;99.90;;;;;;4957825;29;19978;-79
2022/01/18 06:54:35;;;;;;;;;;;6.50;99.90;;;;;;4957306;28;19922;-79
2022/01/18 06:57:01;;;;;;;;;;;6.60;99.90;;;;;;4957579;29;20331;-78
2022/01/18 06:59:26;;;;;;;;;;;6.70;99.90;;;;;;4957569;29;19911;-79
2022/01/18 07:01:52;;;;;;;;;;;6.70;99.90;;;;;;4957855;29;19921;-79
2022/01/18 07:04:18;;;;;;;;;;;6.70;99.90;;;;;;4957656;29;19965;-79
2022/01/18 07:06:45;;;;;;;;;;;6.60;99.90;;;;;;4957498;29;19910;-79
2022/01/18 07:09:12;;;;;;;;;;;6.50;99.90;;;;;;4957482;29;19911;-79
2022/01/18 07:11:38;;;;;;;;;;;6.60;99.90;;;;;;4957377;29;20291;-79
2022/01/18 07:14:03;;;;;;;;;;;6.50;99.90;;;;;;4957455;29;19914;-79
2022/01/18 07:16:29;;;;;;;;;;;6.40;99.90;;;;;;4957358;29;19910;-79
2022/01/18 07:18:54;;;;;;;;;;;6.20;99.90;;;;;;4940117;29;19910;-79
2022/01/18 07:21:20;;;;;;;;;;;6.10;99.90;;;;;;4957247;29;20414;-79
2022/01/18 07:23:45;;;;;;;;;;;6.00;99.90;;;;;;4957024;29;19917;-79
2022/01/18 07:26:11;;;;;;;;;;;6.00;99.90;;;;;;4957114;29;19958;-80
2022/01/18 07:28:37;;;;;;;;;;;5.90;99.90;;;;;;4956871;29;19915;-79
2022/01/18 07:31:03;;;;;;;;;;;5.70;99.90;;;;;;4956722;29;19915;-79
2022/01/18 07:33:29;;;;;;;;;;;5.60;99.90;;;;;;4939624;29;20013;-79
2022/01/18 07:35:55;;;;;;;;;;;5.60;99.90;;;;;;4956978;29;19964;-79
2022/01/18 07:38:21;;;;;;;;;;;5.60;99.90;;;;;;4955667;29;19911;-79
2022/01/18 07:40:48;;;;;;;;;;;5.40;99.90;;;;;;4957163;29;19952;-79
2022/01/18 07:43:17;;;;;;;;;;;5.20;99.90;;;;;;4956775;29;19938;-79
2022/01/18 07:45:46;;;;;;;;;;;5.30;99.90;;;;;;4955501;29;20018;-79
2022/01/18 07:48:12;;;;;;;;;;;5.20;99.90;;;;;;4956707;29;19910;-79
2022/01/18 07:50:42;;;;;;;;;;;5.10;99.90;;;;;;4956842;29;19910;-79
2022/01/18 07:53:07;;;;;;;;;;;5.10;99.90;;;;;;4956808;29;20407;-79
2022/01/18 07:55:33;;;;;;;;;;;5.00;99.90;;;;;;4956198;29;19966;-79
2022/01/18 07:58:00;;;;;;;;;;;5.10;99.90;;;;;;4956586;29;19910;-78
2022/01/18 08:00:26;;;;;;;;;;;5.20;99.90;;;;;;4939263;29;19917;-79
2022/01/18 08:02:51;;;;;;;;;;;5.20;99.90;;;;;;4956516;29;19910;-78
2022/01/18 08:05:17;;;;;;;;;;;5.20;99.90;;;;;;4956488;29;19933;-79
2022/01/18 08:07:43;;;;;;;;;;;5.30;99.90;;;;;;4955692;28;19914;-78
2022/01/18 08:10:10;;;;;;;;;;;5.40;99.90;;;;;;4956552;29;19910;-79
2022/01/18 08:12:35;;;;;;;;;;;5.40;99.90;;;;;;4956471;29;19914;-79
2022/01/18 08:15:11;;;;;;;;;;;5.30;99.90;;;;;;4956315;29;19910;-79
2022/01/18 08:17:37;;;;;;;;;;;5.30;99.90;;;;;;4954736;29;19966;-79
2022/01/18 08:20:03;;;;;;;;;;;5.20;99.90;;;;;;4956362;29;19922;-78
2022/01/18 08:22:29;;;;;;;;;;;5.20;99.90;;;;;;4954834;29;19911;-79
2022/01/18 08:24:54;;;;;;;;;;;5.30;99.90;;;;;;4956117;29;19910;-79
2022/01/18 08:27:21;;;;;;;;;;;5.20;99.90;;;;;;4956224;29;19910;-79
2022/01/18 08:29:47;;;;;;;;;;;5.40;99.90;;;;;;4956018;29;19917;-79
2022/01/18 08:32:12;;;;;;;;;;;5.50;99.90;;;;;;4955886;29;20069;-78
2022/01/18 08:34:38;;;;;;;;;;;5.50;99.90;;;;;;4956193;29;19910;-79
2022/01/18 08:37:03;;;;;;;;;;;5.60;99.90;;;;;;4954666;29;19910;-78
2022/01/18 08:39:29;;;;;;;;;;;5.70;99.90;;;;;;4956213;29;19995;-78
2022/01/18 08:41:55;;;;;;;;;;;5.70;99.90;;;;;;4955850;29;20351;-79
2022/01/18 08:44:21;;;;;;;;;;;5.70;99.90;;;;;;4955760;29;20379;-79
2022/01/18 08:46:46;;;;;;;;;;;5.80;99.90;;;;;;4955731;29;19911;-79
2022/01/18 08:49:12;;;;;;;;;;;5.80;99.90;;;;;;4956269;29;19911;-78
2022/01/18 08:51:37;;;;;;;;;;;5.90;99.90;;;;;;4955957;29;20005;-79
2022/01/18 08:54:04;;;;;;;;;;;6.00;99.90;;;;;;4955289;29;20007;-79
2022/01/18 08:56:29;;;;;;;;;;;6.00;99.90;;;;;;4938173;29;20347;-79
2022/01/18 08:58:55;;;;;;;;;;;6.10;99.90;;;;;;4955647;29;19949;-79
2022/01/18 09:01:21;;;;;;;;;;;6.30;99.90;;;;;;4938408;29;20390;-78
2022/01/18 09:03:47;;;;;;;;;;;6.40;99.90;;;;;;4955840;29;19911;-79
2022/01/18 09:06:14;;;;;;;;;;;6.40;99.90;;;;;;4955398;29;19922;-79
2022/01/18 09:08:41;;;;;;;;;;;6.50;99.90;;;;;;4938290;29;19911;-79
2022/01/18 09:11:07;;;;;;;;;;;6.50;99.90;;;;;;4938313;29;19918;-79
2022/01/18 09:13:34;;;;;;;;;;;6.60;99.90;;;;;;4955463;29;20013;-79
2022/01/18 09:16:00;;;;;;;;;;;6.80;99.90;;;;;;4955480;29;19950;-79
2022/01/18 09:18:26;;;;;;;;;;;6.90;99.90;;;;;;4957890;28;19922;-78
2022/01/18 09:20:52;;;;;;;;;;;7.00;99.90;;;;;;4942219;29;19911;-79
2022/01/18 09:23:17;;;;;;;;;;;7.00;99.90;;;;;;4959408;29;19961;-78
2022/01/18 09:25:43;;;;;;;;;;;7.10;99.90;;;;;;4959596;29;19921;-79
2022/01/18 09:28:09;;;;;;;;;;;7.00;99.90;;;;;;4959436;29;20395;-79
2022/01/18 09:30:35;;;;;;;;;;;7.00;99.90;;;;;;4959334;29;19938;-79
2022/01/18 09:33:02;;;;;;;;;;;6.90;99.90;;;;;;4959229;29;19922;-79
2022/01/18 09:35:28;;;;;;;;;;;7.10;99.90;;;;;;4959399;29;19910;-79
2022/01/18 09:37:54;;;;;;;;;;;7.20;99.90;;;;;;4959157;29;19997;-79
2022/01/18 09:40:20;;;;;;;;;;;7.20;99.90;;;;;;4959143;29;19957;-80
2022/01/18 09:42:57;;;;;;;;;;;7.30;99.90;;;;;;4959677;29;19914;-79
2022/01/18 09:45:25;;;;;;;;;;;7.30;99.90;;;;;;4959340;29;19922;-79
2022/01/18 09:47:52;;;;;;;;;;;7.20;99.90;;;;;;4941732;29;19917;-79
2022/01/18 09:50:31;;;;;;;;;;;7.20;99.90;;;;;;4957576;29;19917;-79
2022/01/18 09:52:58;;;;;;;;;;;7.20;99.90;;;;;;4941396;29;19965;-79
2022/01/18 09:55:25;;;;;;;;;;;7.30;99.90;;;;;;4958711;29;19923;-79
2022/01/18 09:57:51;;;;;;;;;;;7.20;99.90;;;;;;4941598;29;20291;-79
2022/01/18 10:00:17;;;;;;;;;;;7.00;99.90;;;;;;4959276;29;19958;-79
2022/01/18 10:02:43;;;;;;;;;;;7.00;99.90;;;;;;4958719;29;20371;-79
2022/01/18 10:05:18;;;;;;;;;;;7.10;99.90;;;;;;4958667;29;19917;-79
2022/01/18 10:07:44;;;;;;;;;;;6.90;99.90;;;;;;4958640;29;20292;-79
2022/01/18 10:10:09;;;;;;;;;;;7.10;99.90;;;;;;4958559;29;19918;-79
2022/01/18 10:12:35;;;;;;;;;;;7.20;99.90;;;;;;4958456;29;19922;-79
2022/01/18 10:15:02;;;;;;;;;;;7.20;99.90;;;;;;4958458;29;20012;-79
2022/01/18 10:17:29;;;;;;;;;;;7.40;99.90;;;;;;4958410;29;20387;-79
2022/01/18 10:19:54;;;;;;;;;;;7.40;99.90;;;;;;4958651;29;19970;-79
2022/01/18 10:22:26;;;;;;;;;;;7.50;99.90;;;;;;4941122;29;19910;-79
2022/01/18 10:24:52;;;;;;;;;;;7.50;99.90;;;;;;4956845;29;20290;-79
2022/01/18 10:27:18;;;;;;;;;;;7.40;99.90;;;;;;4941025;29;19914;-79
2022/01/18 10:29:46;;;;;;;;;;;7.60;99.90;;;;;;4957425;28;19964;-79
2022/01/18 10:37:29;;;;;;;;;;;7.80;99.90;;;;;;4958154;29;19953;-79
2022/01/18 10:39:56;;;;;;;;;;;7.80;99.90;;;;;;4958066;29;19911;-79
2022/01/18 10:42:38;;;;;;;;;;;7.80;99.90;;;;;;4958181;29;19921;-80
2022/01/18 10:45:14;;;;;;;;;;;7.80;99.90;;;;;;4957943;29;19910;-79
2022/01/18 10:47:57;;;;;;;;;;;7.60;99.90;;;;;;4957887;29;19980;-79
2022/01/18 10:50:23;;;;;;;;;;;7.80;99.90;;;;;;4958362;29;19914;-79
2022/01/18 10:52:49;;;;;;;;;;;7.90;99.90;;;;;;4957785;29;19943;-80
2022/01/18 10:55:20;;;;;;;;;;;7.90;99.90;;;;;;4957508;29;19922;-79
2022/01/18 10:57:50;;;;;;;;;;;8.00;99.90;;;;;;4957127;29;20319;-79
2022/01/18 11:00:22;;;;;;;;;;;8.20;99.90;;;;;;4957594;29;19911;-79
2022/01/18 11:02:50;;;;;;;;;;;8.20;99.90;;;;;;4957713;29;19933;-79
2022/01/18 11:05:21;;;;;;;;;;;8.30;99.90;;;;;;4957755;29;19917;-79
2022/01/18 11:07:48;;;;;;;;;;;8.30;99.90;;;;;;4956204;29;19911;-79
2022/01/18 11:10:15;;;;;;;;;;;8.50;99.90;;;;;;4957653;29;19994;-79
2022/01/18 11:12:45;;;;;;;;;;;8.60;99.90;;;;;;4957808;29;19969;-79
2022/01/18 11:15:16;;;;;;;;;;;8.60;99.90;;;;;;4957484;29;19918;-79
2022/01/18 11:17:49;;;;;;;;;;;8.60;99.90;;;;;;4957451;29;19980;-79
2022/01/18 11:20:15;;;;;;;;;;;8.70;99.90;;;;;;4957670;29;19965;-79
2022/01/18 11:22:41;;;;;;;;;;;8.70;99.90;;;;;;4957231;28;19910;-79
2022/01/18 11:25:07;;;;;;;;;;;8.80;99.90;;;;;;4957657;29;19918;-79
2022/01/18 11:27:35;;;;;;;;;;;8.70;99.90;;;;;;4957110;29;20283;-79
2022/01/18 11:30:01;;;;;;;;;;;8.60;99.90;;;;;;4957126;29;19990;-79
2022/01/18 11:32:27;;;;;;;;;;;8.70;99.90;;;;;;4957324;29;20062;-78
2022/01/18 11:35:16;;;;;;;;;;;8.70;99.90;;;;;;4957280;29;20352;-79
2022/01/18 11:37:45;;;;;;;;;;;8.80;99.90;;;;;;4912289;29;19916;-79
2022/01/18 11:40:12;;;;;;;;;;;8.90;99.90;;;;;;4956869;28;20375;-79
2022/01/18 11:42:39;;;;;;;;;;;8.80;99.90;;;;;;4955977;29;19911;-79
2022/01/18 11:45:23;;;;;;;;;;;8.80;99.90;;;;;;4957436;29;20484;-79
2022/01/18 11:47:58;;;;;;;;;;;8.90;99.90;;;;;;4956831;29;19910;-79
2022/01/18 11:50:26;;;;;;;;;;;9.10;99.90;;;;;;4956862;29;19921;-79
2022/01/18 11:53:15;;;;;;;;;;;9.20;99.90;;;;;;4956737;29;19914;-79
2022/01/18 11:55:44;;;;;;;;;;;9.30;99.90;;;;;;4955196;29;19923;-79
2022/01/18 11:58:12;;;;;;;;;;;9.60;99.90;;;;;;4939409;29;19915;-79
2022/01/18 12:00:46;;;;;;;;;;;9.50;99.90;;;;;;4955255;29;19910;-79
2022/01/18 12:03:31;;;;;;;;;;;9.60;99.90;;;;;;4956600;29;19920;-79
2022/01/18 12:05:58;;;;;;;;;;;9.50;99.90;;;;;;4956779;29;19910;-79
2022/01/18 12:08:29;;;;;;;;;;;9.90;99.90;;;;;;4956383;29;20449;-79
2022/01/18 12:10:55;;;;;;;;;;;9.90;99.90;;;;;;4956366;29;19917;-79
2022/01/18 12:13:25;;;;;;;;;;;9.80;99.90;;;;;;4956379;29;19914;-79
2022/01/18 12:15:53;;;;;;;;;;;9.70;99.90;;;;;;4956301;29;19962;-79
2022/01/18 12:18:22;;;;;;;;;;;9.50;99.90;;;;;;4958076;28;19910;-79
2022/01/18 12:20:52;;;;;;;;;;;9.20;99.90;;;;;;4955961;28;19914;-79
2022/01/18 12:23:21;;;;;;;;;;;9.00;99.90;;;;;;4957450;28;19914;-79
2022/01/18 12:26:02;;;;;;;;;;;8.80;99.90;;;;;;4965232;28;19952;-79
2022/01/18 12:29:07;;;;;;;;;;;8.50;99.90;;;;;;4965415;28;19910;-79
2022/01/18 12:34:29;;;;;;;;;;;8.30;99.90;;;;;;4965892;28;20367;-79
2022/01/18 12:37:17;;;;;;;;;;;8.60;99.90;;;;;;4965865;28;19910;-79
2022/01/18 12:39:55;;;;;;;;;;;8.60;99.90;;;;;;4956967;28;19961;-79
2022/01/18 12:44:58;;;;;;;;;;;8.20;99.90;;;;;;4968634;28;19910;-79
2022/01/18 12:47:23;;;;;;;;;;;8.10;99.90;;;;;;4975269;28;19941;-79
2022/01/18 12:49:51;;;;;;;;;;;8.10;99.90;;;;;;4975011;28;20370;-79
2022/01/18 12:52:16;;;;;;;;;;;8.00;99.90;;;;;;4974824;28;19914;-79
2022/01/18 12:54:42;;;;;;;;;;;7.90;99.90;;;;;;4974845;28;19922;-79
2022/01/18 12:57:19;;;;;;;;;;;7.80;99.90;;;;;;4989852;28;19914;-79
2022/01/18 12:59:59;;;;;;;;;;;7.90;99.90;;;;;;4975187;28;19910;-79
2022/01/18 13:02:25;;;;;;;;;;;8.00;99.90;;;;;;4957607;28;19910;-79
2022/01/18 13:04:56;;;;;;;;;;;7.90;99.90;;;;;;4974933;28;19933;-79
2022/01/18 13:07:22;;;;;;;;;;;7.90;99.90;;;;;;4974863;28;20405;-79
2022/01/18 13:09:57;;;;;;;;;;;8.10;99.90;;;;;;4975011;28;20001;-79
2022/01/18 13:12:28;;;;;;;;;;;8.20;99.90;;;;;;4974720;28;19962;-79
2022/01/18 13:14:55;;;;;;;;;;;8.50;99.90;;;;;;4975083;28;19910;-79
2022/01/18 13:23:15;;;;;;;;;;;8.60;99.90;;;;;;4955701;29;20031;-79
2022/01/18 13:25:48;;;;;;;;;;;8.90;99.90;;;;;;4955405;29;20465;-79
2022/01/18 13:28:14;;;;;;;;;;;9.10;99.90;;;;;;4955322;29;19921;-79
2022/01/18 13:30:39;;;;;;;;;;;9.00;99.90;;;;;;4955871;29;19911;-79
2022/01/18 13:33:06;;;;;;;;;;;8.80;99.90;;;;;;4955247;29;20287;-79
2022/01/18 13:35:32;;;;;;;;;;;8.80;99.90;;;;;;4954047;29;20438;-79
2022/01/18 13:37:59;;;;;;;;;;;8.80;99.90;;;;;;4954007;29;19910;-79
2022/01/18 13:40:27;;;;;;;;;;;8.80;99.90;;;;;;4955199;29;19910;-80
2022/01/18 13:43:01;;;;;;;;;;;8.80;99.90;;;;;;4955167;29;19911;-79
2022/01/18 13:45:28;;;;;;;;;;;8.90;99.90;;;;;;4937731;29;20379;-79
2022/01/18 13:48:00;;;;;;;;;;;8.80;99.90;;;;;;4955330;29;19918;-79
2022/01/18 13:50:34;;;;;;;;;;;8.70;99.90;;;;;;4937803;29;19910;-78
2022/01/18 13:53:01;;;;;;;;;;;8.70;99.90;;;;;;4937780;29;19921;-79
2022/01/18 13:55:28;;;;;;;;;;;8.60;99.90;;;;;;4954933;29;19922;-79
2022/01/18 13:57:55;;;;;;;;;;;8.50;99.90;;;;;;4955127;29;19926;-79
2022/01/18 14:00:22;;;;;;;;;;;8.50;99.90;;;;;;4955094;29;19933;-79
2022/01/18 14:02:47;;;;;;;;;;;8.50;99.90;;;;;;4955069;29;19911;-79
2022/01/18 14:05:14;;;;;;;;;;;8.40;99.90;;;;;;4956907;28;19922;-79
2022/01/18 14:07:40;;;;;;;;;;;8.40;99.90;;;;;;4958624;29;19911;-79
2022/01/18 14:10:06;;;;;;;;;;;8.40;99.90;;;;;;4959125;29;19918;-78
2022/01/18 14:12:32;;;;;;;;;;;8.40;99.90;;;;;;4958779;29;20025;-79
2022/01/18 14:14:58;;;;;;;;;;;8.40;99.90;;;;;;4958481;29;19949;-78
2022/01/18 14:17:24;;;;;;;;;;;8.50;99.90;;;;;;4959021;29;20372;-79
2022/01/18 14:19:52;;;;;;;;;;;8.40;99.90;;;;;;4958395;29;19918;-79
2022/01/18 14:22:23;;;;;;;;;;;8.40;99.90;;;;;;4958388;29;19911;-79
2022/01/18 14:24:50;;;;;;;;;;;8.50;99.90;;;;;;4958607;29;19962;-79
2022/01/18 14:27:43;;;;;;;;;;;8.50;99.90;;;;;;4958255;29;19933;-79
2022/01/18 14:30:24;;;;;;;;;;;8.60;99.90;;;;;;4956136;29;19911;-79
2022/01/18 14:32:50;;;;;;;;;;;8.60;99.90;;;;;;4958430;29;19914;-79
2022/01/18 14:35:18;;;;;;;;;;;8.70;99.90;;;;;;4958411;29;19936;-79
2022/01/18 14:37:48;;;;;;;;;;;8.70;99.90;;;;;;4940868;29;20009;-78
2022/01/18 14:40:15;;;;;;;;;;;8.70;99.90;;;;;;4956748;29;19915;-79
2022/01/18 14:42:50;;;;;;;;;;;8.70;99.90;;;;;;4958174;29;19910;-78
2022/01/18 14:47:43;;;;;;;;;;;8.60;99.90;;;;;;4957906;29;19929;-78
2022/01/18 14:50:10;;;;;;;;;;;8.60;99.90;;;;;;4940905;29;19910;-79
2022/01/18 14:52:37;;;;;;;;;;;8.60;99.90;;;;;;4958135;28;20283;-79
2022/01/18 14:55:03;;;;;;;;;;;8.50;99.90;;;;;;4957798;29;19922;-79
2022/01/18 14:57:29;;;;;;;;;;;8.50;99.90;;;;;;4956465;29;19911;-79
2022/01/18 14:59:54;;;;;;;;;;;8.60;99.90;;;;;;4957713;29;19917;-79
2022/01/18 15:02:20;;;;;;;;;;;8.50;99.90;;;;;;4958104;29;19911;-79
2022/01/18 15:04:45;;;;;;;;;;;8.40;99.90;;;;;;4957676;29;19911;-78
2022/01/18 15:07:11;;;;;;;;;;;8.40;99.90;;;;;;4957693;29;19965;-79
2022/01/18 15:09:37;;;;;;;;;;;8.40;99.90;;;;;;4957735;29;19911;-79
2022/01/18 15:12:04;;;;;;;;;;;8.40;99.90;;;;;;4957407;29;19929;-80
2022/01/18 15:14:29;;;;;;;;;;;8.40;99.90;;;;;;4940141;29;19910;-79
2022/01/18 15:16:56;;;;;;;;;;;8.30;99.90;;;;;;4955908;28;20327;-79
2022/01/18 15:19:21;;;;;;;;;;;8.10;99.90;;;;;;4957868;29;19917;-79
2022/01/18 15:21:47;;;;;;;;;;;8.20;99.90;;;;;;4957239;29;19910;-79
2022/01/18 15:24:13;;;;;;;;;;;8.20;99.90;;;;;;4957554;29;19914;-79
2022/01/18 15:26:38;;;;;;;;;;;8.30;99.90;;;;;;4957202;29;19911;-78
2022/01/18 15:29:04;;;;;;;;;;;8.50;99.90;;;;;;4957210;29;19957;-78
2022/01/18 15:31:30;;;;;;;;;;;8.40;99.90;;;;;;4957086;29;20044;-79
2022/01/18 15:33:56;;;;;;;;;;;8.50;99.90;;;;;;4957016;29;19914;-78
2022/01/18 15:36:21;;;;;;;;;;;8.60;99.90;;;;;;4957059;29;19961;-79
2022/01/18 15:38:47;;;;;;;;;;;8.60;99.90;;;;;;4957028;29;19946;-79
2022/01/18 15:41:13;;;;;;;;;;;8.60;99.90;;;;;;4939632;29;20295;-79
2022/01/18 15:43:39;;;;;;;;;;;8.60;99.90;;;;;;4957316;29;19910;-79
2022/01/18 15:46:06;;;;;;;;;;;8.60;99.90;;;;;;4939590;29;20390;-79
2022/01/18 15:48:32;;;;;;;;;;;8.70;99.90;;;;;;4956804;29;19953;-79
2022/01/18 15:50:58;;;;;;;;;;;8.70;99.90;;;;;;4957146;29;20045;-80
2022/01/18 15:53:23;;;;;;;;;;;8.60;99.90;;;;;;4956600;28;20438;-79
2022/01/18 15:55:49;;;;;;;;;;;8.70;99.90;;;;;;4956272;29;19922;-79